Andover, Pennsylvania
Current Conditions -  °F | °C
As of 10:53 PM on Tuesday 25 Nov 2014 (Local Time) from KHGR Reporting Station
Clear Clear  
Wind Chill: 42°   Ceiling: Unl
Heat Index: 42°   Visibility: 10mi
Dew Point: 30°   Wind: 3mph
Humidity: 62%   Direction: 330°NNW
Pressure: 30.13"   Gusts: NA
Location:  39.973°N, 77.9661°W
Report Text: KHGR 260353Z AUTO 33003KT 10SM CLR 06/M01 A3013 RMK AO2 SLP216 T00561011 TSNO
Loading
Personal Weather Stations






























Interactive Weather Map New forecast layout! Learn more

10-Day Weather Forecast

Advertisements
Track Severe Weather on mobile